sensor_id;sensor_type;location;lat;lon;timestamp;temperature;humidity
22742;DHT22;11538;48.884;8.696;2023-02-28T00:01:30;1.70;99.90
22742;DHT22;11538;48.884;8.696;2023-02-28T00:03:58;1.70;99.90
22742;DHT22;11538;48.884;8.696;2023-02-28T00:06:27;1.70;99.90
22742;DHT22;11538;48.884;8.696;2023-02-28T00:08:55;1.70;99.90
22742;DHT22;11538;48.884;8.696;2023-02-28T00:11:21;1.60;99.90
22742;DHT22;11538;48.884;8.696;2023-02-28T00:13:48;1.70;99.90
22742;DHT22;11538;48.884;8.696;2023-02-28T00:16:20;1.70;99.90
22742;DHT22;11538;48.884;8.696;2023-02-28T00:18:50;1.70;99.90
22742;DHT22;11538;48.884;8.696;2023-02-28T00:21:18;1.60;99.90
22742;DHT22;11538;48.884;8.696;2023-02-28T00:23:47;1.60;99.90
22742;DHT22;11538;48.884;8.696;2023-02-28T00:26:14;1.60;99.90
22742;DHT22;11538;48.884;8.696;2023-02-28T00:28:42;1.60;99.90
22742;DHT22;11538;48.884;8.696;2023-02-28T00:31:08;1.60;99.90
22742;DHT22;11538;48.884;8.696;2023-02-28T00:33:35;1.50;99.90
22742;DHT22;11538;48.884;8.696;2023-02-28T00:36:07;1.50;99.90
22742;DHT22;11538;48.884;8.696;2023-02-28T00:38:38;1.50;99.90
22742;DHT22;11538;48.884;8.696;2023-02-28T00:41:06;1.50;99.90
22742;DHT22;11538;48.884;8.696;2023-02-28T00:43:35;1.50;99.90
22742;DHT22;11538;48.884;8.696;2023-02-28T00:46:03;1.50;99.90
22742;DHT22;11538;48.884;8.696;2023-02-28T00:48:31;1.50;99.90
22742;DHT22;11538;48.884;8.696;2023-02-28T00:50:59;1.40;99.90
22742;DHT22;11538;48.884;8.696;2023-02-28T00:53:27;1.40;99.90
22742;DHT22;11538;48.884;8.696;2023-02-28T00:55:55;1.50;99.90
22742;DHT22;11538;48.884;8.696;2023-02-28T00:58:22;1.40;99.90
22742;DHT22;11538;48.884;8.696;2023-02-28T01:00:49;1.40;99.90
22742;DHT22;11538;48.884;8.696;2023-02-28T01:03:18;1.40;99.90
22742;DHT22;11538;48.884;8.696;2023-02-28T01:05:46;1.40;99.90
22742;DHT22;11538;48.884;8.696;2023-02-28T01:08:13;1.40;99.90
22742;DHT22;11538;48.884;8.696;2023-02-28T01:10:42;1.40;99.90
22742;DHT22;11538;48.884;8.696;2023-02-28T01:13:09;1.40;99.90
22742;DHT22;11538;48.884;8.696;2023-02-28T01:15:36;1.30;99.90
22742;DHT22;11538;48.884;8.696;2023-02-28T01:18:12;1.40;99.90
22742;DHT22;11538;48.884;8.696;2023-02-28T01:20:39;1.30;99.90
22742;DHT22;11538;48.884;8.696;2023-02-28T01:23:06;1.30;99.90
22742;DHT22;11538;48.884;8.696;2023-02-28T01:25:37;1.30;99.90
22742;DHT22;11538;48.884;8.696;2023-02-28T01:28:05;1.30;99.90
22742;DHT22;11538;48.884;8.696;2023-02-28T01:30:32;1.30;99.90
22742;DHT22;11538;48.884;8.696;2023-02-28T01:32:59;1.30;99.90
22742;DHT22;11538;48.884;8.696;2023-02-28T01:35:27;1.30;99.90
22742;DHT22;11538;48.884;8.696;2023-02-28T01:37:54;1.30;99.90
22742;DHT22;11538;48.884;8.696;2023-02-28T01:40:21;1.20;99.90
22742;DHT22;11538;48.884;8.696;2023-02-28T01:42:48;1.20;99.90
22742;DHT22;11538;48.884;8.696;2023-02-28T01:45:28;1.20;99.90
22742;DHT22;11538;48.884;8.696;2023-02-28T01:48:02;1.20;99.90
22742;DHT22;11538;48.884;8.696;2023-02-28T01:50:36;1.20;99.90
22742;DHT22;11538;48.884;8.696;2023-02-28T01:53:08;1.20;99.90
22742;DHT22;11538;48.884;8.696;2023-02-28T01:55:47;1.20;99.90
22742;DHT22;11538;48.884;8.696;2023-02-28T01:58:17;1.10;99.90
22742;DHT22;11538;48.884;8.696;2023-02-28T02:00:47;1.10;99.90
22742;DHT22;11538;48.884;8.696;2023-02-28T02:03:16;1.10;99.90
22742;DHT22;11538;48.884;8.696;2023-02-28T02:05:47;1.10;99.90
22742;DHT22;11538;48.884;8.696;2023-02-28T02:08:23;1.10;99.90
22742;DHT22;11538;48.884;8.696;2023-02-28T02:10:57;1.00;99.90
22742;DHT22;11538;48.884;8.696;2023-02-28T02:25:12;1.00;99.90
22742;DHT22;11538;48.884;8.696;2023-02-28T02:31:10;1.00;99.90
22742;DHT22;11538;48.884;8.696;2023-02-28T02:37:14;0.90;99.90
22742;DHT22;11538;48.884;8.696;2023-02-28T02:39:51;0.90;99.90
22742;DHT22;11538;48.884;8.696;2023-02-28T02:42:49;0.90;99.90
22742;DHT22;11538;48.884;8.696;2023-02-28T02:45:45;0.90;99.90
22742;DHT22;11538;48.884;8.696;2023-02-28T02:48:18;0.90;99.90
22742;DHT22;11538;48.884;8.696;2023-02-28T02:50:55;0.90;99.90
22742;DHT22;11538;48.884;8.696;2023-02-28T02:53:33;0.90;99.90
22742;DHT22;11538;48.884;8.696;2023-02-28T02:56:05;0.90;99.90
22742;DHT22;11538;48.884;8.696;2023-02-28T02:58:37;0.90;99.90
22742;DHT22;11538;48.884;8.696;2023-02-28T03:01:12;0.90;99.90
22742;DHT22;11538;48.884;8.696;2023-02-28T03:04:10;0.90;99.90
22742;DHT22;11538;48.884;8.696;2023-02-28T03:06:46;0.90;99.90
22742;DHT22;11538;48.884;8.696;2023-02-28T03:09:13;0.90;99.90
22742;DHT22;11538;48.884;8.696;2023-02-28T03:11:41;0.90;99.90
22742;DHT22;11538;48.884;8.696;2023-02-28T03:17:30;0.90;99.90
22742;DHT22;11538;48.884;8.696;2023-02-28T03:20:48;0.90;99.90
22742;DHT22;11538;48.884;8.696;2023-02-28T03:23:35;0.90;99.90
22742;DHT22;11538;48.884;8.696;2023-02-28T03:26:31;0.90;99.90
22742;DHT22;11538;48.884;8.696;2023-02-28T03:29:07;0.90;99.90
22742;DHT22;11538;48.884;8.696;2023-02-28T03:32:16;0.90;99.90
22742;DHT22;11538;48.884;8.696;2023-02-28T03:34:56;0.90;99.90
22742;DHT22;11538;48.884;8.696;2023-02-28T03:37:33;0.90;99.90
22742;DHT22;11538;48.884;8.696;2023-02-28T03:40:05;0.90;99.90
22742;DHT22;11538;48.884;8.696;2023-02-28T03:42:41;0.90;99.90
22742;DHT22;11538;48.884;8.696;2023-02-28T03:45:28;0.90;99.90
22742;DHT22;11538;48.884;8.696;2023-02-28T03:48:06;0.90;99.90
22742;DHT22;11538;48.884;8.696;2023-02-28T03:50:43;0.90;99.90
22742;DHT22;11538;48.884;8.696;2023-02-28T03:53:16;1.00;99.90
22742;DHT22;11538;48.884;8.696;2023-02-28T03:55:59;0.90;99.90
22742;DHT22;11538;48.884;8.696;2023-02-28T04:01:18;0.90;99.90
22742;DHT22;11538;48.884;8.696;2023-02-28T04:03:50;0.90;99.90
22742;DHT22;11538;48.884;8.696;2023-02-28T04:06:20;0.90;99.90
22742;DHT22;11538;48.884;8.696;2023-02-28T04:08:49;0.90;99.90
22742;DHT22;11538;48.884;8.696;2023-02-28T04:13:49;1.00;99.90
22742;DHT22;11538;48.884;8.696;2023-02-28T04:16:16;0.90;99.90
22742;DHT22;11538;48.884;8.696;2023-02-28T04:19:04;1.00;99.90
22742;DHT22;11538;48.884;8.696;2023-02-28T04:21:37;0.90;99.90
22742;DHT22;11538;48.884;8.696;2023-02-28T04:24:07;0.90;99.90
22742;DHT22;11538;48.884;8.696;2023-02-28T04:26:42;0.90;99.90
22742;DHT22;11538;48.884;8.696;2023-02-28T04:29:13;0.90;99.90
22742;DHT22;11538;48.884;8.696;2023-02-28T04:31:44;0.90;99.90
22742;DHT22;11538;48.884;8.696;2023-02-28T04:34:11;0.90;99.90
22742;DHT22;11538;48.884;8.696;2023-02-28T04:36:38;0.90;99.90
22742;DHT22;11538;48.884;8.696;2023-02-28T04:39:05;0.90;99.90
22742;DHT22;11538;48.884;8.696;2023-02-28T04:41:31;0.90;99.90
22742;DHT22;11538;48.884;8.696;2023-02-28T04:43:59;0.80;99.90
22742;DHT22;11538;48.884;8.696;2023-02-28T04:46:26;0.90;99.90
22742;DHT22;11538;48.884;8.696;2023-02-28T04:48:53;0.90;99.90
22742;DHT22;11538;48.884;8.696;2023-02-28T04:51:21;0.80;99.90
22742;DHT22;11538;48.884;8.696;2023-02-28T04:53:48;0.80;99.90
22742;DHT22;11538;48.884;8.696;2023-02-28T04:56:17;0.80;99.90
22742;DHT22;11538;48.884;8.696;2023-02-28T04:58:44;0.80;99.90
22742;DHT22;11538;48.884;8.696;2023-02-28T05:04:06;0.80;99.90
22742;DHT22;11538;48.884;8.696;2023-02-28T05:06:33;0.80;99.90
22742;DHT22;11538;48.884;8.696;2023-02-28T05:09:01;0.80;99.90
22742;DHT22;11538;48.884;8.696;2023-02-28T05:11:30;0.80;99.90
22742;DHT22;11538;48.884;8.696;2023-02-28T05:14:04;0.80;99.90
22742;DHT22;11538;48.884;8.696;2023-02-28T05:16:33;0.80;99.90
22742;DHT22;11538;48.884;8.696;2023-02-28T05:19:00;0.80;99.90
22742;DHT22;11538;48.884;8.696;2023-02-28T05:21:41;0.80;99.90
22742;DHT22;11538;48.884;8.696;2023-02-28T05:24:17;0.70;99.90
22742;DHT22;11538;48.884;8.696;2023-02-28T05:26:50;0.80;99.90
22742;DHT22;11538;48.884;8.696;2023-02-28T05:29:20;0.80;99.90
22742;DHT22;11538;48.884;8.696;2023-02-28T05:31:47;0.80;99.90
22742;DHT22;11538;48.884;8.696;2023-02-28T05:34:15;0.80;99.90
22742;DHT22;11538;48.884;8.696;2023-02-28T05:36:43;0.80;99.90
22742;DHT22;11538;48.884;8.696;2023-02-28T05:39:12;0.80;99.90
22742;DHT22;11538;48.884;8.696;2023-02-28T05:41:41;0.80;99.90
22742;DHT22;11538;48.884;8.696;2023-02-28T05:44:09;0.80;99.90
22742;DHT22;11538;48.884;8.696;2023-02-28T05:46:37;0.80;99.90
22742;DHT22;11538;48.884;8.696;2023-02-28T05:49:04;0.90;99.90
22742;DHT22;11538;48.884;8.696;2023-02-28T05:51:31;0.90;99.90
22742;DHT22;11538;48.884;8.696;2023-02-28T05:53:59;0.90;99.90
22742;DHT22;11538;48.884;8.696;2023-02-28T05:56:28;0.90;99.90
22742;DHT22;11538;48.884;8.696;2023-02-28T05:58:58;0.90;99.90
22742;DHT22;11538;48.884;8.696;2023-02-28T06:01:37;0.90;99.90
22742;DHT22;11538;48.884;8.696;2023-02-28T06:04:09;0.90;99.90
22742;DHT22;11538;48.884;8.696;2023-02-28T06:06:48;0.90;99.90
22742;DHT22;11538;48.884;8.696;2023-02-28T06:09:16;0.90;99.90
22742;DHT22;11538;48.884;8.696;2023-02-28T06:11:44;1.00;99.90
22742;DHT22;11538;48.884;8.696;2023-02-28T06:14:15;0.90;99.90
22742;DHT22;11538;48.884;8.696;2023-02-28T06:16:45;1.00;99.90
22742;DHT22;11538;48.884;8.696;2023-02-28T06:19:12;1.00;99.90
22742;DHT22;11538;48.884;8.696;2023-02-28T06:21:41;1.00;99.90
22742;DHT22;11538;48.884;8.696;2023-02-28T06:24:09;1.00;99.90
22742;DHT22;11538;48.884;8.696;2023-02-28T06:26:36;1.00;99.90
22742;DHT22;11538;48.884;8.696;2023-02-28T06:29:06;1.10;99.90
22742;DHT22;11538;48.884;8.696;2023-02-28T06:31:33;1.10;99.90
22742;DHT22;11538;48.884;8.696;2023-02-28T06:34:00;1.10;99.90
22742;DHT22;11538;48.884;8.696;2023-02-28T06:36:27;1.10;99.90
22742;DHT22;11538;48.884;8.696;2023-02-28T06:38:54;1.10;99.90
22742;DHT22;11538;48.884;8.696;2023-02-28T06:41:24;1.10;99.90
22742;DHT22;11538;48.884;8.696;2023-02-28T06:43:54;1.20;99.90
22742;DHT22;11538;48.884;8.696;2023-02-28T06:46:21;1.20;99.90
22742;DHT22;11538;48.884;8.696;2023-02-28T06:48:48;1.20;99.90
22742;DHT22;11538;48.884;8.696;2023-02-28T06:51:18;1.20;99.90
22742;DHT22;11538;48.884;8.696;2023-02-28T06:53:49;1.20;99.90
22742;DHT22;11538;48.884;8.696;2023-02-28T06:56:17;1.20;99.90
22742;DHT22;11538;48.884;8.696;2023-02-28T06:58:48;1.20;99.90
22742;DHT22;11538;48.884;8.696;2023-02-28T07:01:17;1.30;99.90
22742;DHT22;11538;48.884;8.696;2023-02-28T07:03:46;1.30;99.90
22742;DHT22;11538;48.884;8.696;2023-02-28T07:06:20;1.30;99.90
22742;DHT22;11538;48.884;8.696;2023-02-28T07:08:50;1.30;99.90
22742;DHT22;11538;48.884;8.696;2023-02-28T07:11:20;1.40;99.90
22742;DHT22;11538;48.884;8.696;2023-02-28T07:13:49;1.40;99.90
22742;DHT22;11538;48.884;8.696;2023-02-28T07:16:17;1.40;99.90
22742;DHT22;11538;48.884;8.696;2023-02-28T07:18:44;1.40;99.90
22742;DHT22;11538;48.884;8.696;2023-02-28T07:21:12;1.40;99.90
22742;DHT22;11538;48.884;8.696;2023-02-28T07:23:39;1.40;99.90
22742;DHT22;11538;48.884;8.696;2023-02-28T07:26:11;1.40;99.90
22742;DHT22;11538;48.884;8.696;2023-02-28T07:28:41;1.40;99.90
22742;DHT22;11538;48.884;8.696;2023-02-28T07:31:09;1.40;99.90
22742;DHT22;11538;48.884;8.696;2023-02-28T07:33:37;1.40;99.90
22742;DHT22;11538;48.884;8.696;2023-02-28T07:36:12;1.40;99.90
22742;DHT22;11538;48.884;8.696;2023-02-28T07:38:43;1.40;99.90
22742;DHT22;11538;48.884;8.696;2023-02-28T07:41:15;1.40;99.90
22742;DHT22;11538;48.884;8.696;2023-02-28T07:43:43;1.40;99.90
22742;DHT22;11538;48.884;8.696;2023-02-28T07:46:13;1.50;99.90
22742;DHT22;11538;48.884;8.696;2023-02-28T07:48:42;1.40;99.90
22742;DHT22;11538;48.884;8.696;2023-02-28T07:51:10;1.40;99.90
22742;DHT22;11538;48.884;8.696;2023-02-28T07:53:37;1.40;99.90
22742;DHT22;11538;48.884;8.696;2023-02-28T07:56:07;1.50;99.90
22742;DHT22;11538;48.884;8.696;2023-02-28T07:58:34;1.40;99.90
22742;DHT22;11538;48.884;8.696;2023-02-28T08:01:08;1.40;99.90
22742;DHT22;11538;48.884;8.696;2023-02-28T08:03:37;1.50;99.90
22742;DHT22;11538;48.884;8.696;2023-02-28T08:06:07;1.50;99.90
22742;DHT22;11538;48.884;8.696;2023-02-28T08:08:41;1.50;99.90
22742;DHT22;11538;48.884;8.696;2023-02-28T08:11:07;1.50;99.90
22742;DHT22;11538;48.884;8.696;2023-02-28T08:13:34;1.50;99.90
22742;DHT22;11538;48.884;8.696;2023-02-28T08:16:02;1.60;99.90
22742;DHT22;11538;48.884;8.696;2023-02-28T08:18:29;1.60;99.90
22742;DHT22;11538;48.884;8.696;2023-02-28T08:20:56;1.60;99.90
22742;DHT22;11538;48.884;8.696;2023-02-28T08:23:24;1.70;99.90
22742;DHT22;11538;48.884;8.696;2023-02-28T08:25:55;1.70;99.90
22742;DHT22;11538;48.884;8.696;2023-02-28T08:28:23;1.80;99.90
22742;DHT22;11538;48.884;8.696;2023-02-28T08:30:53;1.80;99.90
22742;DHT22;11538;48.884;8.696;2023-02-28T08:33:21;1.80;99.90
22742;DHT22;11538;48.884;8.696;2023-02-28T08:35:52;1.90;99.90
22742;DHT22;11538;48.884;8.696;2023-02-28T08:38:22;1.90;99.90
22742;DHT22;11538;48.884;8.696;2023-02-28T08:40:49;1.90;99.90
22742;DHT22;11538;48.884;8.696;2023-02-28T08:43:23;1.90;99.90
22742;DHT22;11538;48.884;8.696;2023-02-28T08:45:54;2.00;99.90
22742;DHT22;11538;48.884;8.696;2023-02-28T08:48:27;2.00;99.90
22742;DHT22;11538;48.884;8.696;2023-02-28T08:50:57;2.10;99.90
22742;DHT22;11538;48.884;8.696;2023-02-28T08:53:35;2.10;99.90
22742;DHT22;11538;48.884;8.696;2023-02-28T08:56:07;2.10;99.90
22742;DHT22;11538;48.884;8.696;2023-02-28T08:58:36;2.10;99.90
22742;DHT22;11538;48.884;8.696;2023-02-28T09:01:17;2.10;99.90
22742;DHT22;11538;48.884;8.696;2023-02-28T09:03:47;2.20;99.90
22742;DHT22;11538;48.884;8.696;2023-02-28T09:06:22;2.20;99.90
22742;DHT22;11538;48.884;8.696;2023-02-28T09:08:50;2.30;99.90
22742;DHT22;11538;48.884;8.696;2023-02-28T09:11:18;2.40;99.90
22742;DHT22;11538;48.884;8.696;2023-02-28T09:13:46;2.40;99.90
22742;DHT22;11538;48.884;8.696;2023-02-28T09:16:15;2.40;99.90
22742;DHT22;11538;48.884;8.696;2023-02-28T09:18:44;2.40;99.90
22742;DHT22;11538;48.884;8.696;2023-02-28T09:21:13;2.30;99.90
22742;DHT22;11538;48.884;8.696;2023-02-28T09:23:49;2.40;99.90
22742;DHT22;11538;48.884;8.696;2023-02-28T09:26:20;2.40;99.90
22742;DHT22;11538;48.884;8.696;2023-02-28T09:29:00;2.40;99.90
22742;DHT22;11538;48.884;8.696;2023-02-28T09:31:29;2.40;99.90
22742;DHT22;11538;48.884;8.696;2023-02-28T09:33:57;2.40;99.90
22742;DHT22;11538;48.884;8.696;2023-02-28T09:36:26;2.50;99.90
22742;DHT22;11538;48.884;8.696;2023-02-28T09:39:09;2.50;99.90
22742;DHT22;11538;48.884;8.696;2023-02-28T09:41:39;2.50;99.90
22742;DHT22;11538;48.884;8.696;2023-02-28T09:44:28;2.60;99.90
22742;DHT22;11538;48.884;8.696;2023-02-28T09:47:29;2.60;99.90
22742;DHT22;11538;48.884;8.696;2023-02-28T09:52:54;2.70;99.90
22742;DHT22;11538;48.884;8.696;2023-02-28T09:58:33;2.80;99.90
22742;DHT22;11538;48.884;8.696;2023-02-28T10:01:23;2.80;99.90
22742;DHT22;11538;48.884;8.696;2023-02-28T10:04:03;2.90;99.90
22742;DHT22;11538;48.884;8.696;2023-02-28T10:06:49;3.00;99.90
22742;DHT22;11538;48.884;8.696;2023-02-28T10:09:37;3.00;99.90
22742;DHT22;11538;48.884;8.696;2023-02-28T10:12:05;3.00;99.90
22742;DHT22;11538;48.884;8.696;2023-02-28T10:14:34;3.10;99.90
22742;DHT22;11538;48.884;8.696;2023-02-28T10:17:09;3.10;99.90
22742;DHT22;11538;48.884;8.696;2023-02-28T10:22:17;3.20;99.90
22742;DHT22;11538;48.884;8.696;2023-02-28T10:24:53;3.30;99.90
22742;DHT22;11538;48.884;8.696;2023-02-28T10:27:30;3.30;99.90
22742;DHT22;11538;48.884;8.696;2023-02-28T10:30:00;3.30;99.90
22742;DHT22;11538;48.884;8.696;2023-02-28T10:32:36;3.30;99.90
22742;DHT22;11538;48.884;8.696;2023-02-28T10:35:22;3.40;99.90
22742;DHT22;11538;48.884;8.696;2023-02-28T10:37:58;3.40;99.90
22742;DHT22;11538;48.884;8.696;2023-02-28T10:40:31;3.40;99.90
22742;DHT22;11538;48.884;8.696;2023-02-28T10:43:19;3.40;99.90
22742;DHT22;11538;48.884;8.696;2023-02-28T10:46:11;3.40;99.90
22742;DHT22;11538;48.884;8.696;2023-02-28T10:48:57;3.40;99.90
22742;DHT22;11538;48.884;8.696;2023-02-28T10:51:39;3.50;99.90
22742;DHT22;11538;48.884;8.696;2023-02-28T10:54:29;3.50;99.90
22742;DHT22;11538;48.884;8.696;2023-02-28T10:57:20;3.60;99.90
22742;DHT22;11538;48.884;8.696;2023-02-28T10:59:52;3.60;99.90
22742;DHT22;11538;48.884;8.696;2023-02-28T11:02:35;3.70;99.90
22742;DHT22;11538;48.884;8.696;2023-02-28T11:08:13;3.70;99.90
22742;DHT22;11538;48.884;8.696;2023-02-28T11:10:46;3.70;99.90
22742;DHT22;11538;48.884;8.696;2023-02-28T11:13:33;3.70;99.90
22742;DHT22;11538;48.884;8.696;2023-02-28T11:16:06;3.80;99.90
22742;DHT22;11538;48.884;8.696;2023-02-28T11:18:54;3.90;99.90
22742;DHT22;11538;48.884;8.696;2023-02-28T11:21:33;4.00;99.90
22742;DHT22;11538;48.884;8.696;2023-02-28T11:24:28;4.00;99.90
22742;DHT22;11538;48.884;8.696;2023-02-28T11:29:59;4.10;99.90
22742;DHT22;11538;48.884;8.696;2023-02-28T11:32:28;4.20;99.90
22742;DHT22;11538;48.884;8.696;2023-02-28T11:35:24;4.30;99.90
22742;DHT22;11538;48.884;8.696;2023-02-28T11:38:02;4.40;99.90
22742;DHT22;11538;48.884;8.696;2023-02-28T11:43:30;4.50;99.90
22742;DHT22;11538;48.884;8.696;2023-02-28T11:46:20;4.70;99.90
22742;DHT22;11538;48.884;8.696;2023-02-28T11:55:21;6.00;99.90
22742;DHT22;11538;48.884;8.696;2023-02-28T11:58:30;6.20;99.90
22742;DHT22;11538;48.884;8.696;2023-02-28T12:05:49;6.10;99.90
22742;DHT22;11538;48.884;8.696;2023-02-28T12:11:55;6.30;99.90
22742;DHT22;11538;48.884;8.696;2023-02-28T12:20:38;7.60;99.90
22742;DHT22;11538;48.884;8.696;2023-02-28T12:26:33;7.90;99.90
22742;DHT22;11538;48.884;8.696;2023-02-28T12:34:42;7.90;99.90
22742;DHT22;11538;48.884;8.696;2023-02-28T12:37:17;7.90;99.90
22742;DHT22;11538;48.884;8.696;2023-02-28T12:39:56;7.90;99.90
22742;DHT22;11538;48.884;8.696;2023-02-28T12:42:33;7.80;99.90
22742;DHT22;11538;48.884;8.696;2023-02-28T12:47:42;7.70;99.90
22742;DHT22;11538;48.884;8.696;2023-02-28T12:50:13;8.00;99.90
22742;DHT22;11538;48.884;8.696;2023-02-28T12:56:53;8.40;99.90
22742;DHT22;11538;48.884;8.696;2023-02-28T12:59:45;8.70;99.90
22742;DHT22;11538;48.884;8.696;2023-02-28T13:10:49;9.40;99.90
22742;DHT22;11538;48.884;8.696;2023-02-28T13:13:26;9.80;99.90
22742;DHT22;11538;48.884;8.696;2023-02-28T13:16:06;10.30;99.90
22742;DHT22;11538;48.884;8.696;2023-02-28T13:18:45;10.70;99.90
22742;DHT22;11538;48.884;8.696;2023-02-28T13:21:25;10.70;99.90
22742;DHT22;11538;48.884;8.696;2023-02-28T13:29:27;10.50;99.90
22742;DHT22;11538;48.884;8.696;2023-02-28T13:35:34;11.20;99.90
22742;DHT22;11538;48.884;8.696;2023-02-28T13:38:13;11.70;99.90
22742;DHT22;11538;48.884;8.696;2023-02-28T13:40:43;12.30;99.90
22742;DHT22;11538;48.884;8.696;2023-02-28T13:43:10;12.40;99.90
22742;DHT22;11538;48.884;8.696;2023-02-28T13:45:37;12.50;99.90
22742;DHT22;11538;48.884;8.696;2023-02-28T13:48:18;12.30;99.90
22742;DHT22;11538;48.884;8.696;2023-02-28T13:50:46;12.00;99.90
22742;DHT22;11538;48.884;8.696;2023-02-28T13:53:35;11.80;99.90
22742;DHT22;11538;48.884;8.696;2023-02-28T13:58:54;11.00;99.90
22742;DHT22;11538;48.884;8.696;2023-02-28T14:04:51;10.80;99.90
22742;DHT22;11538;48.884;8.696;2023-02-28T14:07:37;11.20;99.90
22742;DHT22;11538;48.884;8.696;2023-02-28T14:13:04;11.80;99.90
22742;DHT22;11538;48.884;8.696;2023-02-28T14:15:55;12.00;99.90
22742;DHT22;11538;48.884;8.696;2023-02-28T14:18:32;12.10;99.90
22742;DHT22;11538;48.884;8.696;2023-02-28T14:38:57;11.20;99.90
22742;DHT22;11538;48.884;8.696;2023-02-28T14:41:38;10.80;99.90
22742;DHT22;11538;48.884;8.696;2023-02-28T14:44:26;10.40;99.90
22742;DHT22;11538;48.884;8.696;2023-02-28T14:46:56;10.00;99.90
22742;DHT22;11538;48.884;8.696;2023-02-28T14:49:34;9.90;99.90
22742;DHT22;11538;48.884;8.696;2023-02-28T14:54:53;9.50;99.90
22742;DHT22;11538;48.884;8.696;2023-02-28T14:57:23;9.40;99.90
22742;DHT22;11538;48.884;8.696;2023-02-28T15:00:13;9.20;99.90
22742;DHT22;11538;48.884;8.696;2023-02-28T15:02:46;9.00;99.90
22742;DHT22;11538;48.884;8.696;2023-02-28T15:07:48;8.60;99.90
22742;DHT22;11538;48.884;8.696;2023-02-28T15:10:27;8.50;99.90
22742;DHT22;11538;48.884;8.696;2023-02-28T15:15:43;8.30;99.90
22742;DHT22;11538;48.884;8.696;2023-02-28T15:18:57;8.20;99.90
22742;DHT22;11538;48.884;8.696;2023-02-28T15:21:31;8.10;99.90
22742;DHT22;11538;48.884;8.696;2023-02-28T15:26:54;7.90;99.90
22742;DHT22;11538;48.884;8.696;2023-02-28T15:29:28;7.90;99.90
22742;DHT22;11538;48.884;8.696;2023-02-28T15:32:03;7.80;99.90
22742;DHT22;11538;48.884;8.696;2023-02-28T15:34:42;7.70;99.90
22742;DHT22;11538;48.884;8.696;2023-02-28T15:37:38;7.60;99.90
22742;DHT22;11538;48.884;8.696;2023-02-28T15:42:40;7.50;99.90
22742;DHT22;11538;48.884;8.696;2023-02-28T15:45:27;7.40;99.90
22742;DHT22;11538;48.884;8.696;2023-02-28T15:47:58;7.40;99.90
22742;DHT22;11538;48.884;8.696;2023-02-28T15:50:39;7.30;99.90
22742;DHT22;11538;48.884;8.696;2023-02-28T15:53:13;7.30;99.90
22742;DHT22;11538;48.884;8.696;2023-02-28T15:55:42;7.20;99.90
22742;DHT22;11538;48.884;8.696;2023-02-28T15:58:11;7.10;99.90
22742;DHT22;11538;48.884;8.696;2023-02-28T16:00:43;7.10;99.90
22742;DHT22;11538;48.884;8.696;2023-02-28T16:03:27;7.00;99.90
22742;DHT22;11538;48.884;8.696;2023-02-28T16:08:44;6.90;99.90
22742;DHT22;11538;48.884;8.696;2023-02-28T16:11:11;6.90;99.90
22742;DHT22;11538;48.884;8.696;2023-02-28T16:13:38;6.80;99.90
22742;DHT22;11538;48.884;8.696;2023-02-28T16:16:05;6.80;99.90
22742;DHT22;11538;48.884;8.696;2023-02-28T16:18:33;6.80;99.90
22742;DHT22;11538;48.884;8.696;2023-02-28T16:20:59;6.70;99.90
22742;DHT22;11538;48.884;8.696;2023-02-28T16:23:26;6.70;99.90
22742;DHT22;11538;48.884;8.696;2023-02-28T16:25:54;6.60;99.90
22742;DHT22;11538;48.884;8.696;2023-02-28T16:28:31;6.60;99.90
22742;DHT22;11538;48.884;8.696;2023-02-28T16:31:02;6.60;99.90
22742;DHT22;11538;48.884;8.696;2023-02-28T16:33:33;6.50;99.90
22742;DHT22;11538;48.884;8.696;2023-02-28T16:36:00;6.50;99.90
22742;DHT22;11538;48.884;8.696;2023-02-28T16:38:28;6.40;99.90
22742;DHT22;11538;48.884;8.696;2023-02-28T16:40:58;6.40;99.90
22742;DHT22;11538;48.884;8.696;2023-02-28T16:43:27;6.30;99.90
22742;DHT22;11538;48.884;8.696;2023-02-28T16:45:55;6.30;99.90
22742;DHT22;11538;48.884;8.696;2023-02-28T16:48:27;6.20;99.90
22742;DHT22;11538;48.884;8.696;2023-02-28T16:50:54;6.20;99.90
22742;DHT22;11538;48.884;8.696;2023-02-28T16:53:20;6.10;99.90
22742;DHT22;11538;48.884;8.696;2023-02-28T16:55:48;6.10;99.90
22742;DHT22;11538;48.884;8.696;2023-02-28T16:58:17;6.00;99.90
22742;DHT22;11538;48.884;8.696;2023-02-28T17:00:45;6.00;99.90
22742;DHT22;11538;48.884;8.696;2023-02-28T17:03:30;5.90;99.90
22742;DHT22;11538;48.884;8.696;2023-02-28T17:06:00;5.90;99.90
22742;DHT22;11538;48.884;8.696;2023-02-28T17:08:27;5.90;99.90
22742;DHT22;11538;48.884;8.696;2023-02-28T17:10:56;5.80;99.90
22742;DHT22;11538;48.884;8.696;2023-02-28T17:13:23;5.80;99.90
22742;DHT22;11538;48.884;8.696;2023-02-28T17:15:50;5.70;99.90
22742;DHT22;11538;48.884;8.696;2023-02-28T17:18:18;5.70;99.90
22742;DHT22;11538;48.884;8.696;2023-02-28T17:20:47;5.60;99.90
22742;DHT22;11538;48.884;8.696;2023-02-28T17:23:14;5.60;99.90
22742;DHT22;11538;48.884;8.696;2023-02-28T17:25:42;5.50;99.90
22742;DHT22;11538;48.884;8.696;2023-02-28T17:28:23;5.50;99.90
22742;DHT22;11538;48.884;8.696;2023-02-28T17:30:50;5.40;99.90
22742;DHT22;11538;48.884;8.696;2023-02-28T17:33:17;5.40;99.90
22742;DHT22;11538;48.884;8.696;2023-02-28T17:35:47;5.30;99.90
22742;DHT22;11538;48.884;8.696;2023-02-28T17:38:16;5.30;99.90
22742;DHT22;11538;48.884;8.696;2023-02-28T17:40:44;5.20;99.90
22742;DHT22;11538;48.884;8.696;2023-02-28T17:43:11;5.20;99.90
22742;DHT22;11538;48.884;8.696;2023-02-28T17:45:38;5.20;99.90
22742;DHT22;11538;48.884;8.696;2023-02-28T17:48:06;5.10;99.90
22742;DHT22;11538;48.884;8.696;2023-02-28T17:50:38;5.10;99.90
22742;DHT22;11538;48.884;8.696;2023-02-28T17:53:05;5.00;99.90
22742;DHT22;11538;48.884;8.696;2023-02-28T17:55:32;5.00;99.90
22742;DHT22;11538;48.884;8.696;2023-02-28T17:58:01;4.90;99.90
22742;DHT22;11538;48.884;8.696;2023-02-28T18:00:30;4.90;99.90
22742;DHT22;11538;48.884;8.696;2023-02-28T18:02:59;4.80;99.90
22742;DHT22;11538;48.884;8.696;2023-02-28T18:05:27;4.80;99.90
22742;DHT22;11538;48.884;8.696;2023-02-28T18:07:54;4.80;99.90
22742;DHT22;11538;48.884;8.696;2023-02-28T18:10:21;4.70;99.90
22742;DHT22;11538;48.884;8.696;2023-02-28T18:12:50;4.60;99.90
22742;DHT22;11538;48.884;8.696;2023-02-28T18:15:21;4.60;99.90
22742;DHT22;11538;48.884;8.696;2023-02-28T18:17:49;4.50;99.90
22742;DHT22;11538;48.884;8.696;2023-02-28T18:20:16;4.50;99.90
22742;DHT22;11538;48.884;8.696;2023-02-28T18:22:44;4.40;99.90
22742;DHT22;11538;48.884;8.696;2023-02-28T18:25:14;4.40;99.90
22742;DHT22;11538;48.884;8.696;2023-02-28T18:27:44;4.40;99.90
22742;DHT22;11538;48.884;8.696;2023-02-28T18:30:29;4.30;99.90
22742;DHT22;11538;48.884;8.696;2023-02-28T18:33:00;4.20;99.90
22742;DHT22;11538;48.884;8.696;2023-02-28T18:35:28;4.20;99.90
22742;DHT22;11538;48.884;8.696;2023-02-28T18:38:06;4.10;99.90
22742;DHT22;11538;48.884;8.696;2023-02-28T18:40:39;4.00;99.90
22742;DHT22;11538;48.884;8.696;2023-02-28T18:43:06;4.00;99.90
22742;DHT22;11538;48.884;8.696;2023-02-28T18:45:35;3.90;99.90